Time;durP1;ratioP1;P1;durP2;ratioP2;P2;SDS_P1;SDS_P2;PMS_P1;PMS_P2;Temp;Humidity;BMP_temperature;BMP_pressure;BME280_temperature;BME280_humidity;BME280_pressure;Samples;Min_cycle;Max_cycle;Signal;HPM_P1;HPM_P2
2023/11/21 00:01:52;;;;;;;74.82;11.52;;;12.90;94.30;;;;;;4979034;28;20032;-52
2023/11/21 00:04:17;;;;;;;60.80;10.20;;;12.90;94.20;;;;;;4963081;29;20036;-52
2023/11/21 00:06:46;;;;;;;79.25;11.57;;;12.90;94.20;;;;;;4979316;28;20032;-51
2023/11/21 00:09:12;;;;;;;63.25;10.32;;;12.90;94.30;;;;;;4948496;28;20036;-52
2023/11/21 00:11:38;;;;;;;74.28;10.90;;;12.80;94.30;;;;;;4948343;29;20038;-52
2023/11/21 00:14:04;;;;;;;76.57;12.75;;;12.90;94.40;;;;;;4979088;28;20040;-51
2023/11/21 00:16:30;;;;;;;52.33;10.90;;;12.90;94.40;;;;;;4948475;28;20031;-52
2023/11/21 00:18:55;;;;;;;64.15;10.25;;;12.90;94.40;;;;;;4948313;28;20030;-52
2023/11/21 00:21:21;;;;;;;66.90;10.70;;;12.80;94.50;;;;;;4979092;28;20052;-52
2023/11/21 00:23:46;;;;;;;62.40;10.35;;;12.80;94.50;;;;;;4979106;28;20028;-52
2023/11/21 00:26:12;;;;;;;53.35;9.73;;;12.80;94.50;;;;;;4948281;29;20028;-52
2023/11/21 00:28:37;;;;;;;46.08;8.98;;;12.80;94.50;;;;;;4948395;29;20031;-52
2023/11/21 00:31:04;;;;;;;63.05;11.25;;;12.80;94.50;;;;;;4964238;28;20036;-52
2023/11/21 00:33:29;;;;;;;58.60;11.57;;;12.80;94.50;;;;;;4982423;28;20031;-52
2023/11/21 00:35:55;;;;;;;66.35;10.85;;;12.80;94.50;;;;;;4951798;28;20024;-52
2023/11/21 00:38:20;;;;;;;53.83;10.00;;;12.80;94.50;;;;;;4982333;28;20039;-52
2023/11/21 00:40:46;;;;;;;54.67;10.25;;;12.80;94.50;;;;;;4952103;28;20031;-52
2023/11/21 00:43:12;;;;;;;50.28;9.27;;;12.80;94.50;;;;;;4982788;28;20560;-51
2023/11/21 00:45:37;;;;;;;59.30;9.05;;;12.80;94.40;;;;;;4951635;29;20036;-52
2023/11/21 00:48:04;;;;;;;44.13;9.68;;;12.70;94.50;;;;;;4982192;28;20047;-52
2023/11/21 00:50:30;;;;;;;64.80;10.20;;;12.80;94.50;;;;;;4951420;29;20042;-51
2023/11/21 00:52:56;;;;;;;60.50;10.05;;;12.80;94.50;;;;;;4982207;28;20031;-52
2023/11/21 00:55:21;;;;;;;56.25;9.95;;;12.80;94.60;;;;;;4951269;29;20071;-52
2023/11/21 00:57:47;;;;;;;43.75;9.30;;;12.80;94.60;;;;;;4966073;29;20039;-52
2023/11/21 01:00:14;;;;;;;49.53;9.00;;;12.70;94.60;;;;;;4950028;29;20031;-52
2023/11/21 01:02:40;;;;;;;47.95;10.20;;;12.70;94.60;;;;;;4981741;28;20028;-52
2023/11/21 01:05:07;;;;;;;51.63;9.18;;;12.70;94.70;;;;;;4982151;28;20066;-52
2023/11/21 01:07:33;;;;;;;47.55;9.32;;;12.70;94.70;;;;;;4981516;28;20067;-52
2023/11/21 01:09:59;;;;;;;60.08;10.93;;;12.70;94.70;;;;;;4981945;28;20063;-52
2023/11/21 01:12:24;;;;;;;45.30;10.07;;;12.70;94.70;;;;;;4981662;28;20028;-52
2023/11/21 01:14:50;;;;;;;39.58;9.15;;;12.70;94.70;;;;;;4965407;29;20039;-52
2023/11/21 01:17:16;;;;;;;48.55;9.82;;;12.70;94.80;;;;;;4981772;28;20051;-52
2023/11/21 01:19:42;;;;;;;63.67;10.38;;;12.70;94.80;;;;;;4950869;29;20035;-52
2023/11/21 01:22:08;;;;;;;50.85;9.55;;;12.70;94.80;;;;;;4981599;28;20032;-52
2023/11/21 01:24:34;;;;;;;48.53;9.63;;;12.70;94.80;;;;;;4949373;29;20059;-52
2023/11/21 01:26:59;;;;;;;48.53;10.02;;;12.70;94.90;;;;;;4949404;29;20036;-52
2023/11/21 01:29:25;;;;;;;41.90;9.88;;;12.70;94.90;;;;;;4950731;29;20028;-52
2023/11/21 01:31:51;;;;;;;52.47;10.35;;;12.70;94.90;;;;;;4950889;29;20511;-52
2023/11/21 01:34:17;;;;;;;44.53;9.05;;;12.70;94.90;;;;;;4951016;29;20036;-52
2023/11/21 01:36:42;;;;;;;48.58;9.95;;;12.70;94.90;;;;;;4981464;28;20091;-52
2023/11/21 01:39:08;;;;;;;39.28;8.32;;;12.60;95.00;;;;;;4950724;29;20028;-52
2023/11/21 01:41:35;;;;;;;43.80;8.38;;;12.70;95.00;;;;;;4950242;29;20055;-52
2023/11/21 01:44:00;;;;;;;50.53;8.80;;;12.60;94.90;;;;;;4965165;28;20378;-52
2023/11/21 01:46:26;;;;;;;37.25;8.52;;;12.60;94.90;;;;;;4981337;28;20027;-52
2023/11/21 01:48:52;;;;;;;36.28;8.90;;;12.60;94.90;;;;;;4981181;28;20027;-52
2023/11/21 01:51:18;;;;;;;37.28;9.13;;;12.60;95.00;;;;;;4980776;28;20400;-52
2023/11/21 01:53:46;;;;;;;36.47;8.52;;;12.60;95.00;;;;;;4950270;28;20028;-52
2023/11/21 01:56:12;;;;;;;40.55;9.35;;;12.60;95.00;;;;;;4980568;28;20020;-52
2023/11/21 01:58:38;;;;;;;50.25;10.30;;;12.60;95.00;;;;;;4981046;28;20035;-52
2023/11/21 02:01:04;;;;;;;42.97;9.32;;;12.60;95.00;;;;;;4981468;28;20019;-52
2023/11/21 02:03:29;;;;;;;31.35;8.57;;;12.60;95.10;;;;;;4981020;28;20191;-52
2023/11/21 02:05:55;;;;;;;38.90;9.25;;;12.60;95.10;;;;;;4981137;28;20016;-52
2023/11/21 02:08:20;;;;;;;42.58;8.25;;;12.60;95.10;;;;;;4980798;28;20046;-52
2023/11/21 02:10:47;;;;;;;22.50;6.65;;;12.60;95.00;;;;;;4980873;28;20035;-52
2023/11/21 02:13:13;;;;;;;26.48;7.38;;;12.60;94.90;;;;;;4964528;29;20119;-52
2023/11/21 02:15:38;;;;;;;31.08;7.00;;;12.50;94.80;;;;;;4980558;28;20059;-52
2023/11/21 02:18:05;;;;;;;32.35;6.82;;;12.50;94.70;;;;;;4980884;28;20083;-51
2023/11/21 02:20:34;;;;;;;26.77;7.00;;;12.50;94.70;;;;;;4980441;28;20024;-51
2023/11/21 02:23:00;;;;;;;32.33;8.65;;;12.50;94.70;;;;;;4980089;28;20115;-52
2023/11/21 02:25:25;;;;;;;24.70;7.35;;;12.50;94.80;;;;;;4980708;28;20028;-51
2023/11/21 02:27:51;;;;;;;35.72;6.40;;;12.50;95.10;;;;;;4949646;29;20042;-51
2023/11/21 02:30:17;;;;;;;21.85;6.28;;;12.50;94.80;;;;;;4980438;28;20027;-52
2023/11/21 02:32:43;;;;;;;29.52;7.25;;;12.50;94.90;;;;;;4949494;29;20416;-51
2023/11/21 02:35:09;;;;;;;37.13;8.23;;;12.40;94.90;;;;;;4949580;29;20031;-51
2023/11/21 02:37:35;;;;;;;25.15;6.43;;;12.40;95.20;;;;;;4947969;29;20063;-51
2023/11/21 02:40:03;;;;;;;26.30;6.53;;;12.40;95.00;;;;;;4980059;28;20035;-51
2023/11/21 02:42:29;;;;;;;24.13;6.45;;;12.40;95.10;;;;;;4979522;28;20377;-52
2023/11/21 02:44:55;;;;;;;25.90;5.90;;;12.40;95.10;;;;;;4948039;29;20031;-51
2023/11/21 02:47:20;;;;;;;26.40;5.93;;;12.40;95.20;;;;;;4980126;28;20119;-51
2023/11/21 02:49:46;;;;;;;24.52;6.28;;;12.40;95.30;;;;;;4949953;29;20031;-51
2023/11/21 02:52:11;;;;;;;31.02;6.03;;;12.40;95.30;;;;;;4950323;29;20050;-51
2023/11/21 02:54:37;;;;;;;18.08;5.28;;;12.40;95.30;;;;;;4949244;29;20028;-51
2023/11/21 02:57:03;;;;;;;18.17;5.38;;;12.40;95.40;;;;;;4980307;28;20040;-51
2023/11/21 02:59:28;;;;;;;17.85;5.30;;;12.40;95.60;;;;;;4979775;28;20075;-51
2023/11/21 03:01:54;;;;;;;21.80;6.28;;;12.40;95.70;;;;;;4979675;28;20051;-51
2023/11/21 03:04:20;;;;;;;19.92;6.80;;;12.40;96.00;;;;;;4949120;29;20027;-51
2023/11/21 03:06:46;;;;;;;20.50;5.55;;;12.30;95.80;;;;;;4949089;29;20036;-51
2023/11/21 03:09:12;;;;;;;20.50;5.55;;;12.30;95.80;;;;;;4979817;28;20031;-51
2023/11/21 03:11:38;;;;;;;27.25;6.30;;;12.30;95.80;;;;;;4979819;28;20121;-51
2023/11/21 03:14:03;;;;;;;24.58;6.07;;;12.30;95.80;;;;;;4979722;28;20032;-51
2023/11/21 03:16:29;;;;;;;20.13;5.63;;;12.30;95.90;;;;;;4979788;28;20027;-51
2023/11/21 03:18:54;;;;;;;20.65;5.65;;;12.30;96.00;;;;;;4948763;29;20032;-51
2023/11/21 03:21:20;;;;;;;18.05;4.82;;;12.30;96.10;;;;;;4948942;29;20023;-51
2023/11/21 03:23:45;;;;;;;18.05;5.38;;;12.30;96.00;;;;;;4979712;28;20032;-51
2023/11/21 03:26:14;;;;;;;20.98;5.45;;;12.30;96.00;;;;;;4948860;29;20105;-51
2023/11/21 03:28:40;;;;;;;16.92;4.90;;;12.30;96.10;;;;;;4948668;29;20072;-51
2023/11/21 03:31:06;;;;;;;14.00;4.53;;;12.30;96.10;;;;;;4979588;28;20023;-51
2023/11/21 03:33:32;;;;;;;16.52;5.45;;;12.30;96.20;;;;;;4979399;28;20031;-51
2023/11/21 03:35:57;;;;;;;20.88;5.70;;;12.30;96.20;;;;;;4979444;28;20449;-51
2023/11/21 03:38:23;;;;;;;18.98;5.35;;;12.30;96.30;;;;;;4979396;28;20044;-51
2023/11/21 03:40:49;;;;;;;15.93;4.78;;;12.30;96.30;;;;;;4947316;29;20035;-51
2023/11/21 03:43:14;;;;;;;18.23;5.00;;;12.30;96.30;;;;;;4979757;28;20036;-51
2023/11/21 03:45:40;;;;;;;16.70;6.13;;;12.30;96.40;;;;;;4979971;28;20052;-51
2023/11/21 03:48:06;;;;;;;21.67;6.03;;;12.30;96.40;;;;;;4948791;29;20050;-51
2023/11/21 03:50:32;;;;;;;12.35;4.45;;;12.30;96.40;;;;;;4979295;28;20035;-51
2023/11/21 03:52:57;;;;;;;18.17;5.53;;;12.20;96.40;;;;;;4948554;29;20087;-51
2023/11/21 03:55:26;;;;;;;13.00;5.03;;;12.20;96.40;;;;;;4948563;29;20024;-51
2023/11/21 03:57:52;;;;;;;17.75;5.45;;;12.30;96.50;;;;;;4962804;29;20027;-51
2023/11/21 04:00:20;;;;;;;13.52;5.18;;;12.20;96.60;;;;;;4979436;28;20024;-51
2023/11/21 04:02:46;;;;;;;22.05;5.60;;;12.20;96.60;;;;;;4948429;29;20052;-51
2023/11/21 04:05:12;;;;;;;16.88;5.07;;;12.20;96.50;;;;;;4980579;28;20368;-51
2023/11/21 04:07:38;;;;;;;16.80;4.82;;;12.20;96.60;;;;;;4952194;29;20278;-51
2023/11/21 04:10:07;;;;;;;18.92;5.25;;;12.20;96.60;;;;;;4982888;28;20034;-51
2023/11/21 04:12:32;;;;;;;14.52;4.45;;;12.20;96.60;;;;;;4952203;29;20113;-51
2023/11/21 04:14:58;;;;;;;15.77;4.78;;;12.20;96.60;;;;;;4982820;28;20036;-51
2023/11/21 04:17:24;;;;;;;24.70;5.57;;;12.20;96.60;;;;;;4982887;28;20028;-51
2023/11/21 04:19:49;;;;;;;19.08;4.82;;;12.20;96.60;;;;;;4952151;28;20035;-51
2023/11/21 04:22:15;;;;;;;16.20;4.70;;;12.20;96.70;;;;;;4983246;28;20059;-51
2023/11/21 04:24:40;;;;;;;17.35;4.95;;;12.10;96.90;;;;;;4951585;29;20055;-51
2023/11/21 04:27:06;;;;;;;16.48;4.55;;;12.20;97.00;;;;;;4982583;28;20063;-51
2023/11/21 04:29:31;;;;;;;9.80;4.47;;;12.10;97.20;;;;;;4982821;28;20039;-51
2023/11/21 04:31:57;;;;;;;16.60;4.75;;;12.10;96.80;;;;;;4982756;28;20035;-51
2023/11/21 04:34:22;;;;;;;16.17;5.13;;;12.10;96.70;;;;;;4966450;29;20059;-51
2023/11/21 04:36:49;;;;;;;20.95;5.22;;;12.10;96.60;;;;;;4951446;29;20031;-51
2023/11/21 04:39:15;;;;;;;19.13;5.18;;;12.10;96.70;;;;;;4951657;29;20082;-50
2023/11/21 04:41:40;;;;;;;13.00;4.40;;;12.10;96.80;;;;;;4982526;28;20107;-51
2023/11/21 04:44:06;;;;;;;12.75;4.65;;;12.00;96.70;;;;;;4982383;28;20080;-52
2023/11/21 04:46:32;;;;;;;11.60;4.10;;;12.10;96.80;;;;;;4951465;29;20420;-51
2023/11/21 04:48:58;;;;;;;16.10;4.72;;;12.00;96.70;;;;;;4982280;28;20566;-51
2023/11/21 04:51:23;;;;;;;16.27;4.57;;;12.00;96.70;;;;;;4982154;28;20086;-51
2023/11/21 04:53:49;;;;;;;11.25;4.55;;;12.00;96.80;;;;;;4951371;29;20059;-51
2023/11/21 04:56:16;;;;;;;11.57;4.63;;;12.00;96.80;;;;;;4966038;29;20020;-51
2023/11/21 04:58:41;;;;;;;12.48;4.78;;;12.00;96.80;;;;;;4951424;28;20099;-51
2023/11/21 05:01:10;;;;;;;11.10;4.38;;;12.00;96.80;;;;;;4951170;29;20071;-51
2023/11/21 05:03:35;;;;;;;9.77;4.53;;;12.00;96.80;;;;;;4982244;28;20027;-51
2023/11/21 05:06:01;;;;;;;11.60;4.25;;;12.00;96.90;;;;;;4982023;28;20048;-50
2023/11/21 05:08:26;;;;;;;12.98;4.20;;;12.00;96.80;;;;;;4983695;28;20055;-51
2023/11/21 05:10:53;;;;;;;14.90;4.50;;;12.00;96.80;;;;;;4981980;28;20028;-51
2023/11/21 05:13:19;;;;;;;10.50;3.53;;;12.00;96.80;;;;;;4951212;29;20055;-51
2023/11/21 05:15:45;;;;;;;11.13;3.85;;;11.90;96.80;;;;;;4981351;28;20024;-51
2023/11/21 05:18:11;;;;;;;9.48;4.10;;;11.90;96.90;;;;;;4981131;28;20052;-51
2023/11/21 05:20:39;;;;;;;13.18;3.65;;;11.90;96.90;;;;;;4981939;28;20020;-51
2023/11/21 05:23:04;;;;;;;12.45;3.90;;;11.90;96.90;;;;;;4980929;28;20106;-51
2023/11/21 05:25:30;;;;;;;6.25;2.97;;;11.90;96.90;;;;;;4965669;29;20060;-51
2023/11/21 05:27:55;;;;;;;13.35;3.78;;;11.90;96.90;;;;;;4981627;28;20038;-51
2023/11/21 05:30:21;;;;;;;10.43;3.80;;;11.90;96.90;;;;;;4949367;29;20027;-51
2023/11/21 05:32:47;;;;;;;14.82;3.70;;;11.80;96.90;;;;;;4965499;28;20056;-51
2023/11/21 05:35:15;;;;;;;10.70;3.70;;;11.80;97.00;;;;;;4950361;29;20042;-51
2023/11/21 05:37:42;;;;;;;9.73;3.70;;;11.80;97.00;;;;;;4980549;28;20039;-51
2023/11/21 05:40:08;;;;;;;6.18;3.00;;;11.80;96.90;;;;;;4981514;28;20027;-51
2023/11/21 05:42:34;;;;;;;9.45;3.55;;;11.80;96.90;;;;;;4981224;28;20031;-51
2023/11/21 05:45:09;;;;;;;9.85;3.53;;;11.80;96.90;;;;;;4981108;28;20028;-51
2023/11/21 05:47:42;;;;;;;12.85;3.45;;;11.80;97.00;;;;;;4950553;28;20063;-51
2023/11/21 05:50:14;;;;;;;11.80;4.03;;;11.80;97.00;;;;;;4980609;28;20039;-51
2023/11/21 05:52:41;;;;;;;7.90;2.85;;;11.80;97.10;;;;;;4980122;28;20032;-51
2023/11/21 05:55:09;;;;;;;9.07;3.20;;;11.80;97.00;;;;;;4980770;28;20043;-51
2023/11/21 05:57:38;;;;;;;10.13;2.90;;;11.80;97.00;;;;;;4980117;28;20102;-51
2023/11/21 06:00:12;;;;;;;7.50;2.80;;;11.80;97.00;;;;;;4980200;28;20059;-51
2023/11/21 06:02:39;;;;;;;8.88;3.15;;;11.80;96.90;;;;;;4979439;28;20032;-51
2023/11/21 06:05:06;;;;;;;7.97;2.60;;;11.80;97.00;;;;;;4981077;28;20200;-51
2023/11/21 06:07:31;;;;;;;6.15;3.13;;;11.70;97.10;;;;;;4980731;28;20036;-51
2023/11/21 06:09:57;;;;;;;8.20;2.67;;;11.70;97.00;;;;;;4949926;29;20082;-51
2023/11/21 06:12:22;;;;;;;13.45;3.30;;;11.70;97.00;;;;;;4949789;28;20040;-51
2023/11/21 06:14:48;;;;;;;6.70;2.85;;;11.70;97.00;;;;;;4980455;28;20042;-51
2023/11/21 06:17:14;;;;;;;6.85;3.17;;;11.70;97.00;;;;;;4980456;28;20028;-51
2023/11/21 06:19:40;;;;;;;9.50;3.05;;;11.70;97.00;;;;;;4980364;28;20151;-51
2023/11/21 06:22:05;;;;;;;8.88;2.95;;;11.70;97.10;;;;;;4980273;28;20396;-51
2023/11/21 06:24:31;;;;;;;8.43;2.72;;;11.70;97.10;;;;;;4980295;28;20360;-51
2023/11/21 06:26:57;;;;;;;9.77;3.00;;;11.70;97.00;;;;;;4949393;29;20032;-51
2023/11/21 06:29:22;;;;;;;6.60;2.33;;;11.70;97.00;;;;;;4979376;28;20510;-51
2023/11/21 06:31:48;;;;;;;8.30;3.03;;;11.70;97.10;;;;;;4949495;29;20166;-51
2023/11/21 06:34:13;;;;;;;6.90;2.80;;;11.70;97.10;;;;;;4980088;28;20046;-51
2023/11/21 06:36:39;;;;;;;11.98;3.65;;;11.70;97.10;;;;;;4949255;29;20083;-51
2023/11/21 06:39:08;;;;;;;5.85;2.60;;;11.70;97.20;;;;;;4949305;29;20059;-51
2023/11/21 06:41:34;;;;;;;9.75;2.65;;;11.70;97.20;;;;;;4979258;28;20059;-52
2023/11/21 06:44:00;;;;;;;9.45;2.40;;;11.70;97.20;;;;;;4949327;29;20227;-52
2023/11/21 06:46:25;;;;;;;11.45;3.15;;;11.70;97.20;;;;;;4979822;28;20023;-52
2023/11/21 06:48:51;;;;;;;4.82;2.83;;;11.70;97.30;;;;;;4949451;29;20023;-51
2023/11/21 06:51:16;;;;;;;13.40;2.60;;;11.60;97.30;;;;;;4949041;29;20075;-51
2023/11/21 06:53:42;;;;;;;7.82;2.90;;;11.70;97.40;;;;;;4949182;29;20051;-51
2023/11/21 06:56:20;;;;;;;8.60;2.70;;;11.60;97.40;;;;;;4980002;28;20530;-51
2023/11/21 06:58:46;;;;;;;8.55;2.85;;;11.60;97.40;;;;;;4980046;28;20090;-51
2023/11/21 07:01:15;;;;;;;13.88;3.03;;;11.60;97.40;;;;;;4979839;28;20079;-51
2023/11/21 07:03:41;;;;;;;7.82;2.42;;;11.60;97.40;;;;;;4949098;29;20099;-51
2023/11/21 07:06:07;;;;;;;5.50;2.80;;;11.60;97.40;;;;;;4949041;29;20047;-51
2023/11/21 07:08:33;;;;;;;7.50;2.70;;;11.60;97.40;;;;;;4979860;28;20099;-51
2023/11/21 07:10:58;;;;;;;10.52;2.40;;;11.60;97.40;;;;;;4979932;28;20031;-51
2023/11/21 07:13:24;;;;;;;10.60;2.40;;;11.60;97.50;;;;;;4979775;28;20043;-51
2023/11/21 07:15:49;;;;;;;5.93;2.38;;;11.60;97.50;;;;;;4979689;28;20036;-51
2023/11/21 07:18:15;;;;;;;9.10;2.78;;;11.60;97.50;;;;;;4949007;29;20035;-51
2023/11/21 07:20:40;;;;;;;7.45;2.30;;;11.60;97.50;;;;;;4979545;28;20031;-51
2023/11/21 07:23:06;;;;;;;6.93;2.40;;;11.60;97.50;;;;;;4979645;28;20083;-51
2023/11/21 07:25:33;;;;;;;6.18;2.38;;;11.60;97.50;;;;;;4948808;29;20116;-51
2023/11/21 07:27:59;;;;;;;14.15;2.83;;;11.60;97.60;;;;;;4979468;28;20035;-51
2023/11/21 07:30:25;;;;;;;5.75;2.20;;;11.60;97.60;;;;;;4963348;29;20032;-51
2023/11/21 07:32:50;;;;;;;8.30;2.83;;;11.60;97.70;;;;;;4948134;28;20116;-52
2023/11/21 07:35:16;;;;;;;10.77;2.97;;;11.50;97.70;;;;;;4950418;29;20071;-51
2023/11/21 07:37:42;;;;;;;9.07;2.50;;;11.50;97.70;;;;;;4967319;28;20036;-51
2023/11/21 07:40:08;;;;;;;9.85;2.30;;;11.50;97.70;;;;;;4981674;28;20047;-51
2023/11/21 07:42:34;;;;;;;12.82;2.70;;;11.60;97.70;;;;;;4987418;28;20031;-51
2023/11/21 07:45:00;;;;;;;9.65;2.33;;;11.60;97.70;;;;;;4979312;28;20456;-51
2023/11/21 07:47:27;;;;;;;16.08;2.92;;;11.60;97.70;;;;;;4992135;28;20031;-51
2023/11/21 07:49:54;;;;;;;19.05;2.78;;;11.60;97.70;;;;;;4969175;28;20035;-51
2023/11/21 07:52:21;;;;;;;34.17;3.85;;;11.60;97.70;;;;;;4974254;28;20031;-51
2023/11/21 07:54:46;;;;;;;14.90;3.25;;;11.60;97.70;;;;;;4971867;28;20035;-51
2023/11/21 07:57:13;;;;;;;26.13;2.70;;;11.60;97.70;;;;;;4953815;29;20031;-51
2023/11/21 07:59:40;;;;;;;20.27;2.97;;;11.60;97.70;;;;;;4981285;28;20042;-51
2023/11/21 08:02:06;;;;;;;26.88;3.33;;;11.60;97.80;;;;;;4988293;28;20034;-51
2023/11/21 08:04:32;;;;;;;36.63;3.65;;;11.60;97.80;;;;;;4958846;28;20086;-51
2023/11/21 08:06:57;;;;;;;35.38;3.97;;;11.60;97.80;;;;;;4974794;28;20070;-51
2023/11/21 08:09:23;;;;;;;17.92;3.03;;;11.60;97.90;;;;;;4969660;28;20035;-51
2023/11/21 08:11:49;;;;;;;29.85;3.20;;;11.60;97.90;;;;;;4973392;28;20047;-51
2023/11/21 08:14:15;;;;;;;24.77;3.63;;;11.60;97.80;;;;;;4982205;28;20470;-51
2023/11/21 08:16:40;;;;;;;26.90;3.60;;;11.60;97.90;;;;;;4980964;28;20039;-51
2023/11/21 08:19:06;;;;;;;35.65;3.53;;;11.60;97.90;;;;;;4973930;28;20046;-51
2023/11/21 08:21:31;;;;;;;23.88;3.47;;;11.60;97.90;;;;;;4970742;28;20119;-51
2023/11/21 08:23:57;;;;;;;32.17;3.90;;;11.60;97.90;;;;;;4978637;28;20112;-51
2023/11/21 08:26:23;;;;;;;25.80;3.65;;;11.60;97.90;;;;;;4978176;28;20431;-51
2023/11/21 08:28:49;;;;;;;35.08;4.10;;;11.60;97.90;;;;;;4993931;28;20081;-51
2023/11/21 08:31:14;;;;;;;26.02;4.13;;;11.60;97.90;;;;;;4973073;28;20055;-51
2023/11/21 08:33:40;;;;;;;27.25;4.03;;;11.60;97.90;;;;;;4976275;28;20023;-51
2023/11/21 08:36:11;;;;;;;26.52;4.05;;;11.60;97.90;;;;;;4977645;28;20114;-51
2023/11/21 08:38:37;;;;;;;26.25;3.33;;;11.60;97.90;;;;;;4988398;28;20043;-51
2023/11/21 08:41:07;;;;;;;30.58;4.07;;;11.70;98.00;;;;;;4978498;28;20086;-51
2023/11/21 08:43:35;;;;;;;41.22;4.90;;;11.60;97.90;;;;;;4973191;28;20087;-51
2023/11/21 08:46:01;;;;;;;36.72;5.45;;;11.70;98.10;;;;;;4988676;28;20065;-51
2023/11/21 08:48:28;;;;;;;19.25;3.38;;;11.70;98.20;;;;;;4970270;28;20055;-51
2023/11/21 08:50:54;;;;;;;124.20;9.07;;;11.70;98.20;;;;;;4991510;28;20034;-51
2023/11/21 08:53:20;;;;;;;112.88;10.02;;;11.70;98.20;;;;;;4977467;28;20053;-51
2023/11/21 08:55:45;;;;;;;81.30;6.50;;;11.70;98.20;;;;;;4973212;28;20058;-51
2023/11/21 08:58:12;;;;;;;35.15;4.63;;;11.70;98.40;;;;;;4953030;28;20137;-51
2023/11/21 09:00:39;;;;;;;334.30;24.30;;;11.70;98.30;;;;;;4975514;28;20031;-52
2023/11/21 09:03:14;;;;;;;92.25;8.05;;;11.80;98.30;;;;;;4978430;28;20039;-51
2023/11/21 09:05:39;;;;;;;76.18;5.93;;;11.80;98.20;;;;;;4989020;28;20037;-51
2023/11/21 09:08:05;;;;;;;46.08;5.60;;;11.80;98.20;;;;;;4960920;28;20058;-51
2023/11/21 09:10:39;;;;;;;68.45;7.60;;;11.80;98.20;;;;;;4934193;29;20068;-51
2023/11/21 09:13:04;;;;;;;142.23;10.85;;;11.80;98.20;;;;;;4967512;28;20487;-51
2023/11/21 09:15:30;;;;;;;50.55;6.13;;;11.80;98.20;;;;;;4966493;28;20043;-51
2023/11/21 09:17:56;;;;;;;50.25;4.75;;;11.80;98.10;;;;;;4964760;28;20091;-51
2023/11/21 09:20:22;;;;;;;33.30;4.10;;;11.80;98.10;;;;;;4976761;28;21691;-51
2023/11/21 09:22:48;;;;;;;49.40;5.90;;;11.80;98.10;;;;;;4962221;28;20115;-50
2023/11/21 09:25:14;;;;;;;73.13;7.78;;;11.80;98.20;;;;;;4958231;29;20035;-51
2023/11/21 09:27:40;;;;;;;72.38;8.55;;;11.90;98.20;;;;;;4976972;28;20027;-51
2023/11/21 09:30:09;;;;;;;48.42;6.53;;;11.90;98.20;;;;;;4958556;28;20027;-51
2023/11/21 09:32:36;;;;;;;396.50;33.97;;;11.80;98.20;;;;;;4976842;28;20035;-51
2023/11/21 09:35:03;;;;;;;115.35;11.27;;;11.90;98.40;;;;;;4954780;28;20082;-51
2023/11/21 09:37:29;;;;;;;93.93;9.85;;;11.90;98.50;;;;;;4979639;28;20031;-51
2023/11/21 09:39:55;;;;;;;158.68;13.43;;;11.90;98.40;;;;;;4982783;28;20062;-51
2023/11/21 09:42:45;;;;;;;107.93;10.05;;;11.90;98.50;;;;;;4979698;28;20035;-51
2023/11/21 09:45:22;;;;;;;106.93;11.18;;;11.90;98.40;;;;;;4982537;28;20038;-51
2023/11/21 09:47:47;;;;;;;76.97;9.13;;;11.90;98.40;;;;;;4949078;29;20079;-51
2023/11/21 09:50:17;;;;;;;68.63;8.23;;;11.90;98.40;;;;;;4967927;28;20035;-51
2023/11/21 09:53:16;;;;;;;56.28;7.18;;;11.90;98.40;;;;;;4978958;28;20054;-51
2023/11/21 09:55:43;;;;;;;51.45;6.88;;;11.90;98.30;;;;;;4961117;29;20037;-51
2023/11/21 09:58:11;;;;;;;59.13;6.45;;;11.90;98.30;;;;;;4955658;28;20035;-51
2023/11/21 10:00:43;;;;;;;60.00;7.53;;;11.90;98.30;;;;;;4978971;28;20470;-50
2023/11/21 10:03:09;;;;;;;68.40;6.65;;;12.00;98.30;;;;;;4977362;28;20038;-51
2023/11/21 10:05:36;;;;;;;57.05;6.93;;;12.00;98.40;;;;;;4965914;29;20050;-51
2023/11/21 10:08:02;;;;;;;53.63;6.32;;;12.00;98.40;;;;;;4966130;28;20063;-51
2023/11/21 10:10:28;;;;;;;46.72;6.82;;;12.00;98.40;;;;;;4979369;28;20032;-51
2023/11/21 10:12:55;;;;;;;52.53;5.93;;;12.00;98.30;;;;;;4968149;29;20035;-51
2023/11/21 10:15:26;;;;;;;49.03;6.07;;;12.00;98.30;;;;;;4979955;28;20046;-51
2023/11/21 10:17:53;;;;;;;47.13;5.57;;;12.00;98.30;;;;;;4966238;28;20055;-51
2023/11/21 10:20:19;;;;;;;55.92;7.35;;;12.00;98.30;;;;;;4978559;28;20030;-51
2023/11/21 10:22:45;;;;;;;50.22;5.47;;;12.00;98.30;;;;;;4960749;29;20028;-51
2023/11/21 10:25:14;;;;;;;57.50;6.05;;;12.00;98.30;;;;;;4963824;29;20042;-51
2023/11/21 10:27:39;;;;;;;56.22;6.63;;;12.00;98.40;;;;;;4967283;29;20031;-51
2023/11/21 10:30:06;;;;;;;42.80;6.82;;;12.10;98.50;;;;;;4978383;28;20043;-51
2023/11/21 10:32:32;;;;;;;59.63;6.70;;;12.00;98.50;;;;;;4980688;28;20051;-51
2023/11/21 10:35:06;;;;;;;60.97;7.20;;;12.10;98.50;;;;;;4964252;29;20027;-51
2023/11/21 10:37:32;;;;;;;67.75;7.72;;;12.10;98.50;;;;;;4962311;29;20058;-51
2023/11/21 10:39:58;;;;;;;75.47;7.90;;;12.10;98.70;;;;;;4978098;28;20035;-51
2023/11/21 10:42:24;;;;;;;67.25;8.48;;;12.10;98.70;;;;;;4963524;28;20455;-51
2023/11/21 10:44:50;;;;;;;59.80;7.25;;;12.10;98.60;;;;;;4978854;28;20035;-51
2023/11/21 10:47:18;;;;;;;77.00;8.20;;;12.10;98.60;;;;;;4962490;28;20035;-51
2023/11/21 10:49:45;;;;;;;62.22;7.90;;;12.10;98.60;;;;;;4981033;28;20110;-51
2023/11/21 10:52:17;;;;;;;48.25;6.07;;;12.20;98.70;;;;;;4963133;29;20122;-51
2023/11/21 10:54:43;;;;;;;59.58;6.25;;;12.20;98.70;;;;;;4979026;28;20043;-51
2023/11/21 10:57:08;;;;;;;75.90;7.10;;;12.20;98.70;;;;;;4966414;29;20032;-51
2023/11/21 10:59:34;;;;;;;61.55;6.30;;;12.20;98.80;;;;;;4977463;28;20043;-51
2023/11/21 11:02:02;;;;;;;79.30;7.28;;;12.20;99.00;;;;;;4959344;29;20043;-51
2023/11/21 11:04:28;;;;;;;61.63;7.32;;;12.20;99.00;;;;;;4967499;28;20023;-51
2023/11/21 11:07:03;;;;;;;68.70;8.27;;;12.20;98.70;;;;;;4963694;28;20069;-51
2023/11/21 11:09:28;;;;;;;70.75;8.50;;;12.20;98.70;;;;;;4965183;28;20030;-51
2023/11/21 11:11:54;;;;;;;62.38;6.53;;;12.20;99.00;;;;;;4978245;28;20039;-51
2023/11/21 11:14:19;;;;;;;73.95;9.52;;;12.30;99.00;;;;;;4966567;28;20046;-51
2023/11/21 11:16:45;;;;;;;50.08;7.03;;;12.30;99.00;;;;;;4962512;29;20031;-51
2023/11/21 11:19:12;;;;;;;53.55;6.55;;;12.30;98.90;;;;;;4963755;28;20027;-51
2023/11/21 11:21:48;;;;;;;63.45;7.97;;;12.30;98.90;;;;;;4980273;28;20055;-51
2023/11/21 11:24:38;;;;;;;51.90;6.45;;;12.30;99.10;;;;;;4961617;29;20063;-51
2023/11/21 11:27:25;;;;;;;94.50;10.90;;;12.40;99.20;;;;;;4978346;28;20039;-51
2023/11/21 11:30:12;;;;;;;82.40;8.95;;;12.40;99.30;;;;;;4962507;29;20418;-52
2023/11/21 11:32:47;;;;;;;75.43;7.30;;;12.40;99.60;;;;;;4963738;29;20039;-51
2023/11/21 11:35:26;;;;;;;63.95;7.20;;;12.40;99.20;;;;;;4973787;28;20078;-51
2023/11/21 11:37:52;;;;;;;76.25;8.45;;;12.40;99.10;;;;;;4958393;28;20039;-52
2023/11/21 11:40:19;;;;;;;61.13;5.95;;;12.50;99.20;;;;;;4949278;29;20032;-51
2023/11/21 11:42:58;;;;;;;69.47;6.68;;;12.40;99.40;;;;;;4965127;29;20031;-51
2023/11/21 11:45:24;;;;;;;71.72;6.78;;;12.50;99.30;;;;;;4976109;28;20046;-51
2023/11/21 11:47:56;;;;;;;95.47;9.90;;;12.50;99.30;;;;;;4979334;28;20066;-51
2023/11/21 11:50:26;;;;;;;100.47;10.13;;;12.60;99.50;;;;;;4980039;28;20078;-52
2023/11/21 11:52:54;;;;;;;114.10;11.10;;;12.60;99.60;;;;;;4961149;28;20095;-51
2023/11/21 11:55:21;;;;;;;120.18;10.30;;;12.60;99.70;;;;;;4979914;28;20026;-51
2023/11/21 11:57:51;;;;;;;93.43;9.23;;;12.60;99.50;;;;;;4975983;28;20050;-51
2023/11/21 12:00:24;;;;;;;77.05;8.38;;;12.70;99.60;;;;;;4976110;28;20511;-52
2023/11/21 12:02:58;;;;;;;84.63;8.25;;;12.70;99.60;;;;;;4960299;28;20132;-52
2023/11/21 12:05:27;;;;;;;99.80;8.60;;;12.70;99.50;;;;;;4975335;28;20062;-51
2023/11/21 12:07:54;;;;;;;79.60;8.10;;;12.70;99.40;;;;;;4953085;29;20031;-51
2023/11/21 12:10:22;;;;;;;50.47;8.57;;;12.70;99.20;;;;;;4961692;29;20181;-51
2023/11/21 12:12:52;;;;;;;85.07;8.27;;;12.80;99.10;;;;;;4964243;28;20023;-52
2023/11/21 12:15:18;;;;;;;92.28;10.68;;;12.80;99.10;;;;;;4962138;29;20035;-52
2023/11/21 12:17:44;;;;;;;137.30;11.45;;;12.80;99.20;;;;;;4974630;28;20032;-52
2023/11/21 12:20:20;;;;;;;77.47;9.90;;;12.80;99.20;;;;;;4960382;28;20028;-51
2023/11/21 12:22:49;;;;;;;100.70;10.90;;;12.80;99.20;;;;;;4963102;29;20042;-52
2023/11/21 12:25:18;;;;;;;136.18;12.00;;;12.80;99.30;;;;;;4961130;28;20039;-52
2023/11/21 12:27:45;;;;;;;128.43;12.75;;;12.90;99.40;;;;;;4963631;28;20038;-51
2023/11/21 12:30:13;;;;;;;101.50;10.48;;;12.90;99.30;;;;;;4967316;28;20117;-52
2023/11/21 12:32:48;;;;;;;96.88;10.90;;;12.90;99.30;;;;;;4966517;28;20039;-52
2023/11/21 12:35:13;;;;;;;108.00;13.17;;;12.90;99.30;;;;;;4950516;29;20039;-51